EGPD - Aberdeen / Dyce
Distance from station: E 5mi, 14km
Updated: 01/22/2018 12:20am
Clear
Clear
 Wind from SW
Wind: SW 10 mph , 17 km/h
Temperature: 41°F , 5°C
Wind Chill: 35°F , 2°C
Dew Point: 36°F , 2°C
Humidity: 81%
Barometer: 29.47 inHg , 998 hPa
Clouds: Clear
Visibility: 6 miles , 10 km
2018/01/22 08:20 EGPD 220820Z AUTO 23009KT 9999 NCD 05/02 Q0998 NOSIG